Time;durP1;ratioP1;P1;durP2;ratioP2;P2;SDS_P1;SDS_P2;PMS_P1;PMS_P2;Temp;Humidity;BMP_temperature;BMP_pressure;BME280_temperature;BME280_humidity;BME280_pressure;Samples;Min_cycle;Max_cycle;Signal;HPM_P1;HPM_P2
2022/08/17 00:01:17;;;;;;;;;;;;;;;18.64;97.11;99235.67;1643557;87;21541;-83
2022/08/17 00:03:45;;;;;;;12.80;6.55;;;;;;;18.63;96.62;99231.34;1648751;87;20141;-81
2022/08/17 00:06:25;;;;;;;10.70;7.42;;;;;;;18.59;96.80;99234.45;1642283;87;21072;-82
2022/08/17 00:08:55;;;;;;;8.70;6.03;;;;;;;18.59;96.94;99239.90;1641806;87;21268;-82
2022/08/17 00:11:30;;;;;;;9.38;6.17;;;;;;;18.54;96.88;99237.31;1638050;87;21064;-80
2022/08/17 00:14:03;;;;;;;12.40;5.92;;;;;;;18.50;97.25;99232.77;1611114;88;21126;-83
2022/08/17 00:16:33;;;;;;;9.03;5.87;;;;;;;18.47;97.43;99235.55;1608399;87;21023;-86
2022/08/17 00:19:01;;;;;;;7.15;5.72;;;;;;;18.45;97.70;99230.98;1635438;87;21031;-87
2022/08/17 00:21:28;;;;;;;9.68;5.53;;;;;;;18.43;97.93;99237.84;1634734;87;21138;-90
2022/08/17 00:23:55;;;;;;;8.28;6.05;;;;;;;18.40;98.30;99240.64;1635443;87;21090;-93
2022/08/17 00:26:23;;;;;;;7.12;6.42;;;;;;;18.34;98.69;99239.16;1650772;86;21035;-82
2022/08/17 00:28:50;;;;;;;13.40;6.50;;;;;;;18.33;98.97;99236.19;1648937;87;21524;-79
2022/08/17 00:31:16;;;;;;;11.30;6.58;;;;;;;18.37;99.18;99235.80;1639813;87;21194;-76
2022/08/17 00:33:44;;;;;;;14.28;6.55;;;;;;;18.43;99.14;99232.40;1617105;87;22330;-79
2022/08/17 00:36:12;;;;;;;13.53;6.85;;;;;;;18.45;98.75;99231.54;1621293;87;21535;-73
2022/08/17 00:38:39;;;;;;;13.62;6.33;;;;;;;18.42;98.80;99234.88;1621881;87;20972;-80
2022/08/17 00:41:19;;;;;;;11.45;6.53;;;;;;;18.39;98.92;99232.23;1625026;86;21131;-81
2022/08/17 00:43:56;;;;;;;7.78;6.30;;;;;;;18.36;99.07;99236.14;1633001;87;21098;-80
2022/08/17 00:46:33;;;;;;;16.62;6.53;;;;;;;18.35;99.27;99230.44;1629249;87;21524;-80
2022/08/17 00:49:00;;;;;;;10.32;5.95;;;;;;;18.34;99.45;99226.11;1597667;89;20975;-78
2022/08/17 00:51:50;;;;;;;9.75;6.30;;;;;;;18.30;99.62;99225.38;1617265;87;21046;-76
2022/08/17 00:54:30;;;;;;;7.37;5.58;;;;;;;18.26;99.89;99226.31;1621476;87;22374;-80
2022/08/17 00:57:12;;;;;;;10.82;6.90;;;;;;;18.19;100.00;99223.22;1602501;88;21397;-81
2022/08/17 00:59:47;;;;;;;13.03;7.12;;;;;;;18.10;100.00;99224.53;1593202;88;21530;-80
2022/08/17 01:02:14;;;;;;;13.38;7.17;;;;;;;18.03;100.00;99224.73;1654074;86;21015;-77
2022/08/17 01:04:42;;;;;;;7.70;6.70;;;;;;;17.96;100.00;99233.31;1653952;86;21033;-77
2022/08/17 01:07:12;;;;;;;9.75;5.95;;;;;;;17.91;100.00;99235.35;1610063;89;21012;-92
2022/08/17 01:09:39;;;;;;;16.23;7.67;;;;;;;17.90;100.00;99233.19;1568849;90;21027;-89
2022/08/17 01:12:10;;;;;;;10.53;6.28;;;;;;;17.90;100.00;99231.83;1629936;87;21055;-89
2022/08/17 01:14:37;;;;;;;16.85;6.92;;;;;;;17.87;100.00;99227.02;1586661;88;21105;-88
2022/08/17 01:17:05;;;;;;;10.43;5.97;;;;;;;17.82;100.00;99218.97;1642768;86;21034;-91
2022/08/17 01:19:36;;;;;;;8.80;6.78;;;;;;;17.82;100.00;99228.50;1610688;89;21052;-90
2022/08/17 01:22:15;;;;;;;10.50;6.78;;;;;;;17.89;100.00;99228.08;1587790;88;22356;-87
2022/08/17 01:24:46;;;;;;;8.28;5.97;;;;;;;17.98;100.00;99220.22;1646836;86;21165;-84
2022/08/17 01:27:13;;;;;;;9.20;7.22;;;;;;;18.05;100.00;99217.05;1622227;88;20995;-84
2022/08/17 01:29:44;;;;;;;12.30;7.95;;;;;;;18.09;100.00;99213.94;1626261;86;21032;-85
2022/08/17 01:32:11;;;;;;;8.75;6.12;;;;;;;18.11;100.00;99209.81;1585151;88;21054;-82
2022/08/17 01:34:38;;;;;;;8.20;6.72;;;;;;;18.10;100.00;99206.84;1617300;88;21530;-79
2022/08/17 01:37:05;;;;;;;12.68;6.95;;;;;;;18.10;100.00;99204.67;1617644;87;21137;-78
2022/08/17 01:39:39;;;;;;;12.28;6.42;;;;;;;18.12;100.00;99205.98;1660770;85;21338;-85
2022/08/17 01:42:11;;;;;;;11.45;7.58;;;;;;;18.17;100.00;99211.86;1682611;85;21086;-89
2022/08/17 01:44:38;;;;;;;9.20;5.53;;;;;;;18.18;100.00;99205.27;1658119;85;20962;-86
2022/08/17 01:47:07;;;;;;;8.33;6.22;;;;;;;18.16;100.00;99204.80;1673736;84;21982;-83
2022/08/17 01:49:35;;;;;;;9.43;6.30;;;;;;;18.15;100.00;99208.07;1689061;85;20970;-82
2022/08/17 01:52:08;;;;;;;15.50;7.00;;;;;;;18.14;100.00;99204.29;1677072;84;20974;-82
2022/08/17 01:54:38;;;;;;;8.00;6.77;;;;;;;18.09;100.00;99197.61;1668586;85;21109;-84
2022/08/17 01:57:04;;;;;;;18.48;8.98;;;;;;;18.08;100.00;99204.20;1660066;84;21647;-80
2022/08/17 01:59:32;;;;;;;15.45;7.35;;;;;;;18.02;100.00;99198.08;1659749;84;21104;-83
2022/08/17 02:01:59;;;;;;;16.73;7.03;;;;;;;18.00;100.00;99198.13;1679095;85;21175;-82
2022/08/17 02:04:26;;;;;;;9.95;6.58;;;;;;;18.01;100.00;99185.58;1689159;84;21026;-84
2022/08/17 02:06:53;;;;;;;10.68;6.33;;;;;;;18.04;100.00;99188.22;1664674;84;20991;-90
2022/08/17 02:09:22;;;;;;;13.98;7.40;;;;;;;18.04;100.00;99196.38;1690670;84;20984;-86
2022/08/17 02:11:50;;;;;;;14.98;7.75;;;;;;;17.98;100.00;99195.73;1691640;84;21047;-89
2022/08/17 02:14:17;;;;;;;7.33;6.58;;;;;;;17.92;100.00;99203.77;1685577;84;21067;-89
2022/08/17 02:16:44;;;;;;;7.08;6.45;;;;;;;17.81;100.00;99198.31;1677257;85;20987;-89
2022/08/17 02:19:14;;;;;;;10.45;8.25;;;;;;;17.77;100.00;99202.77;1684624;84;20968;-88
2022/08/17 02:21:44;;;;;;;9.68;7.22;;;;;;;17.73;100.00;99195.80;1691532;84;20952;-88
2022/08/17 02:24:17;;;;;;;9.45;6.85;;;;;;;17.72;100.00;99194.73;1691956;84;21003;-90
2022/08/17 02:26:45;;;;;;;7.57;6.87;;;;;;;17.71;100.00;99204.00;1692686;84;21083;-89
2022/08/17 02:29:13;;;;;;;8.60;6.83;;;;;;;17.70;100.00;99194.22;1690089;84;22237;-88
2022/08/17 02:31:40;;;;;;;8.25;6.95;;;;;;;17.71;100.00;99195.84;1689103;85;21014;-88
2022/08/17 02:34:07;;;;;;;8.28;6.60;;;;;;;17.72;100.00;99195.54;1704749;84;21049;-85
2022/08/17 02:36:34;;;;;;;11.65;6.72;;;;;;;17.73;100.00;99192.27;1705140;84;21128;-84
2022/08/17 02:39:03;;;;;;;9.78;6.87;;;;;;;17.71;100.00;99195.84;1703107;82;21110;-90
2022/08/17 02:41:32;;;;;;;10.00;7.37;;;;;;;17.71;100.00;99196.64;1701666;84;21594;-89
2022/08/17 02:43:58;;;;;;;7.22;6.37;;;;;;;17.74;100.00;99200.13;1705108;82;21078;-88
2022/08/17 02:46:27;;;;;;;16.90;6.97;;;;;;;17.79;100.00;99195.12;1642738;87;21124;-90
2022/08/17 02:48:53;;;;;;;11.68;7.10;;;;;;;17.83;100.00;99197.46;1656459;85;21025;-90
2022/08/17 02:51:23;;;;;;;8.55;7.12;;;;;;;17.83;100.00;99187.39;1652546;86;21119;-89
2022/08/17 02:53:50;;;;;;;18.25;8.23;;;;;;;17.82;100.00;99177.61;1650494;87;21028;-88
2022/08/17 02:56:16;;;;;;;10.82;6.65;;;;;;;17.78;100.00;99186.15;1650551;87;21034;-89
2022/08/17 02:58:43;;;;;;;8.65;6.80;;;;;;;17.82;100.00;99189.86;1653678;85;20971;-89
2022/08/17 03:01:11;;;;;;;9.33;7.33;;;;;;;17.85;100.00;99180.25;1655860;86;21129;-88
2022/08/17 03:03:40;;;;;;;9.38;7.33;;;;;;;17.87;100.00;99173.96;1646467;85;21166;-89
2022/08/17 03:06:10;;;;;;;7.33;6.37;;;;;;;17.82;100.00;99184.41;1656351;86;21007;-90
2022/08/17 03:08:39;;;;;;;7.33;6.72;;;;;;;17.83;100.00;99185.22;1646619;84;21103;-88
2022/08/17 03:11:05;;;;;;;12.35;6.62;;;;;;;17.81;100.00;99179.27;1631849;86;21045;-89
2022/08/17 03:13:32;;;;;;;11.12;6.40;;;;;;;17.79;100.00;99183.66;1656826;85;21082;-88
2022/08/17 03:16:00;;;;;;;9.35;6.78;;;;;;;17.79;100.00;99183.66;1671296;85;21376;-89
2022/08/17 03:18:27;;;;;;;7.28;5.97;;;;;;;17.89;100.00;99185.32;1656799;85;21589;-89
2022/08/17 03:20:56;;;;;;;7.40;6.60;;;;;;;17.94;100.00;99187.14;1668276;84;20916;-91
2022/08/17 03:23:23;;;;;;;10.15;7.75;;;;;;;17.92;100.00;99184.72;1666958;86;20998;-90
2022/08/17 03:25:49;;;;;;;11.70;6.72;;;;;;;17.89;100.00;99181.83;1671226;85;21557;-84
2022/08/17 03:28:16;;;;;;;21.45;14.40;;;;;;;17.86;100.00;99179.95;1656468;85;21402;-84
2022/08/17 03:30:46;;;;;;;13.45;10.70;;;;;;;17.90;100.00;99179.33;1671367;85;21013;-85
2022/08/17 03:33:13;;;;;;;7.72;6.95;;;;;;;17.91;100.00;99173.58;1663493;85;21044;-84
2022/08/17 03:35:40;;;;;;;15.28;8.25;;;;;;;17.83;100.00;99171.06;1650018;87;20976;-83
2022/08/17 03:38:08;;;;;;;7.62;6.92;;;;;;;17.75;100.00;99170.43;1650899;85;21065;-83
2022/08/17 03:40:37;;;;;;;10.48;7.90;;;;;;;17.77;100.00;99170.13;1654930;86;21102;-83
2022/08/17 03:43:07;;;;;;;8.63;7.17;;;;;;;17.77;100.00;99172.84;1653121;85;21597;-83
2022/08/17 03:56:43;;;;;;;11.33;7.05;;;;;;;18.03;100.00;99179.27;1671485;84;20972;-87
2022/08/17 03:59:18;;;;;;;12.05;7.50;;;;;;;18.07;100.00;99175.37;1656405;85;21026;-87
2022/08/17 04:01:48;;;;;;;7.67;6.60;;;;;;;18.10;100.00;99185.06;1656592;86;21042;-88
2022/08/17 04:04:15;;;;;;;11.97;7.47;;;;;;;18.16;100.00;99181.66;1654901;85;21054;-87
2022/08/17 04:06:42;;;;;;;8.05;6.65;;;;;;;18.23;100.00;99187.45;1656495;86;21356;-88
2022/08/17 04:09:09;;;;;;;11.43;7.37;;;;;;;18.27;100.00;99185.14;1656300;85;21586;-88
2022/08/17 04:11:56;;;;;;;9.00;7.72;;;;;;;18.36;100.00;99186.58;1655823;85;21097;-88
2022/08/17 04:14:24;;;;;;;11.33;7.60;;;;;;;18.42;100.00;99189.94;1656252;85;20996;-88
2022/08/17 04:16:52;;;;;;;6.97;6.33;;;;;;;18.42;100.00;99187.22;1647887;86;21059;-89
2022/08/17 04:19:19;;;;;;;8.48;7.30;;;;;;;18.44;100.00;99188.52;1663726;84;21215;-87
2022/08/17 04:21:46;;;;;;;6.45;5.85;;;;;;;18.50;100.00;99190.00;1668106;85;22358;-87
2022/08/17 04:24:13;;;;;;;11.35;7.70;;;;;;;18.57;100.00;99190.92;1638304;86;20982;-88
2022/08/17 04:26:40;;;;;;;9.55;7.45;;;;;;;18.62;100.00;99186.70;1649660;84;21045;-87
2022/08/17 04:29:07;;;;;;;7.47;6.37;;;;;;;18.66;100.00;99191.20;1656531;85;21081;-88
2022/08/17 04:31:34;;;;;;;7.67;6.83;;;;;;;18.76;100.00;99190.67;1656321;86;20998;-87
2022/08/17 04:34:05;;;;;;;9.83;7.33;;;;;;;18.83;100.00;99194.55;1610922;88;21014;-84
2022/08/17 04:36:32;;;;;;;12.47;8.55;;;;;;;18.89;100.00;99181.03;1618691;88;20965;-84
2022/08/17 04:39:02;;;;;;;7.95;7.05;;;;;;;18.97;100.00;99187.61;1609996;87;21109;-84
2022/08/17 04:44:17;;;;;;;12.53;7.92;;;;;;;19.07;100.00;99178.58;1620276;87;21214;-83
2022/08/17 04:46:51;;;;;;;8.60;7.70;;;;;;;19.15;100.00;99178.34;1640581;87;21592;-84
2022/08/17 04:49:19;;;;;;;13.62;6.97;;;;;;;19.22;100.00;99183.34;1642504;85;21022;-82
2022/08/17 04:51:50;;;;;;;10.55;7.25;;;;;;;19.29;100.00;99181.73;1682377;85;21095;-85
2022/08/17 04:54:20;;;;;;;11.33;10.05;;;;;;;19.42;100.00;99182.72;1649634;87;21076;-84
2022/08/17 04:56:48;;;;;;;16.65;9.23;;;;;;;19.42;100.00;99182.72;1621963;87;21073;-85
2022/08/17 04:59:19;;;;;;;12.20;9.10;;;;;;;19.43;100.00;99180.20;1661117;85;21053;-84
2022/08/17 05:01:47;;;;;;;16.73;9.53;;;;;;;19.46;100.00;99178.25;1662963;86;20969;-86
2022/08/17 05:04:19;;;;;;;17.30;8.40;;;;;;;19.50;100.00;99172.39;1650110;87;21006;-83
2022/08/17 05:06:46;;;;;;;8.93;7.30;;;;;;;19.52;100.00;99180.48;1648923;87;21144;-87
2022/08/17 05:09:13;;;;;;;11.60;8.15;;;;;;;19.58;100.00;99172.38;1659502;85;21146;-82
2022/08/17 05:11:40;;;;;;;12.18;8.98;;;;;;;19.69;99.56;99170.70;1631610;87;21038;-84
2022/08/17 05:14:10;;;;;;;11.25;8.58;;;;;;;19.69;99.56;99170.70;1650834;85;21097;-87
2022/08/17 05:16:44;;;;;;;11.18;8.73;;;;;;;19.74;98.99;99174.06;1661942;85;21006;-83
2022/08/17 05:19:13;;;;;;;10.25;8.35;;;;;;;19.80;98.72;99182.34;1663036;85;20970;-83
2022/08/17 05:21:40;;;;;;;13.80;10.25;;;;;;;19.84;98.28;99177.03;1660495;86;21784;-87
2022/08/17 05:24:07;;;;;;;13.18;8.48;;;;;;;19.89;98.01;99172.77;1634012;86;21033;-83
2022/08/17 05:26:35;;;;;;;11.35;9.48;;;;;;;19.93;97.80;99177.81;1660887;86;21030;-83
2022/08/17 05:29:03;;;;;;;13.78;10.55;;;;;;;19.98;97.50;99180.38;1633465;86;21618;-82
2022/08/17 05:31:30;;;;;;;12.15;8.53;;;;;;;20.07;97.39;99185.80;1655558;86;21030;-82
2022/08/17 05:33:57;;;;;;;20.15;14.75;;;;;;;20.15;96.72;99182.25;1678016;83;21387;-82
2022/08/17 05:36:26;;;;;;;38.33;11.48;;;;;;;20.20;96.51;99187.53;1677491;84;21551;-87
2022/08/17 05:38:58;;;;;;;16.55;10.08;;;;;;;20.22;95.80;99178.47;1678063;83;20978;-88
2022/08/17 05:41:24;;;;;;;10.60;8.53;;;;;;;20.24;95.79;99178.95;1672082;83;21038;-86
2022/08/17 05:43:51;;;;;;;11.08;8.33;;;;;;;20.28;95.72;99177.17;1605777;88;21025;-87
2022/08/17 05:46:25;;;;;;;12.13;7.15;;;;;;;20.29;95.28;99173.29;1648866;85;21154;-90
2022/08/17 05:48:54;;;;;;;;;;;;;;;20.30;94.71;99183.09;1650042;85;21037;-89
2022/08/17 05:52:02;;;;;;;16.07;8.13;;;;;;;20.31;94.87;99187.47;1649918;85;20102;-87
2022/08/17 05:54:58;;;;;;;9.88;8.78;;;;;;;20.30;93.52;99180.36;1650493;87;21077;-87
2022/08/17 05:57:50;;;;;;;23.70;19.23;;;;;;;20.23;92.96;99182.81;1650440;85;21019;-89
2022/08/17 06:00:22;;;;;;;19.40;11.18;;;;;;;20.25;93.28;99178.61;1649953;87;22147;-85
2022/08/17 06:03:32;;;;;;;14.83;10.98;;;;;;;20.40;93.41;99186.87;1649628;87;21033;-86
2022/08/17 06:06:20;;;;;;;13.53;9.00;;;;;;;20.47;93.33;99176.81;1643225;85;21089;-82
2022/08/17 06:09:12;;;;;;;10.80;7.90;;;;;;;20.49;92.62;99184.91;1651297;85;21041;-88
2022/08/17 06:11:50;;;;;;;;;;;;;;;20.55;92.30;99184.16;1646611;85;21080;-83
2022/08/17 06:14:45;;;;;;;10.90;9.23;;;;;;;20.61;92.46;99188.33;1615370;88;22252;-86
2022/08/17 06:17:17;;;;;;;16.23;9.48;;;;;;;20.72;92.33;99189.57;1679619;84;21072;-82
2022/08/17 06:19:55;;;;;;;12.65;9.08;;;;;;;20.81;92.02;99188.95;1662932;83;21134;-83
2022/08/17 06:22:40;;;;;;;16.90;8.80;;;;;;;20.92;91.78;99185.26;1661158;85;21125;-84
2022/08/17 06:25:23;;;;;;;13.08;9.10;;;;;;;20.98;91.25;99186.12;1687087;84;21057;-83
2022/08/17 06:27:58;;;;;;;12.80;8.65;;;;;;;21.00;90.89;99193.44;1674493;83;21176;-84
2022/08/17 06:30:27;;;;;;;15.98;9.68;;;;;;;21.05;91.05;99190.52;1661897;85;20994;-86
2022/08/17 06:33:00;;;;;;;14.10;9.48;;;;;;;21.14;90.82;99189.12;1689368;84;21748;-85
2022/08/17 06:35:45;;;;;;;11.22;9.10;;;;;;;21.26;90.83;99186.45;1688359;83;20914;-83
2022/08/17 06:38:40;;;;;;;11.48;9.45;;;;;;;21.40;90.01;99188.92;1686117;83;21141;-86
2022/08/17 06:41:50;;;;;;;14.13;10.20;;;;;;;21.42;89.25;99187.47;1687884;84;21361;-84
2022/08/17 06:44:48;;;;;;;17.62;8.28;;;;;;;21.49;89.44;99182.81;1636650;87;21048;-85
2022/08/17 06:47:40;;;;;;;23.35;15.98;;;;;;;21.61;88.18;99185.63;1676508;83;20958;-86
2022/08/17 06:50:36;;;;;;;19.40;9.88;;;;;;;21.72;87.38;99188.19;1675591;84;21081;-85
2022/08/17 06:53:26;;;;;;;13.38;9.85;;;;;;;21.81;86.38;99187.55;1684765;83;21011;-84
2022/08/17 06:56:12;;;;;;;11.35;9.28;;;;;;;21.90;85.79;99183.35;1664499;84;21107;-87
2022/08/17 06:58:44;;;;;;;13.85;8.00;;;;;;;21.98;85.16;99184.66;1691705;83;20964;-86
2022/08/17 07:01:20;;;;;;;12.43;7.90;;;;;;;22.05;83.23;99179.45;1654563;85;21023;-86
2022/08/17 07:03:59;;;;;;;8.75;7.30;;;;;;;22.15;82.44;99182.33;1684929;84;20962;-87
2022/08/17 07:06:31;;;;;;;19.60;8.15;;;;;;;22.27;81.28;99189.19;1684460;85;21062;-87
2022/08/17 07:09:07;;;;;;;8.95;7.47;;;;;;;22.38;80.95;99186.25;1683701;83;21147;-87
2022/08/17 07:11:55;;;;;;;13.35;9.78;;;;;;;22.49;80.35;99190.12;1682513;85;21064;-87
2022/08/17 07:14:49;;;;;;;14.95;11.33;;;;;;;22.53;80.56;99189.70;1689746;85;21068;-88
2022/08/17 07:17:22;;;;;;;13.15;9.13;;;;;;;22.64;80.75;99193.37;1689614;85;21122;-86
2022/08/17 07:19:50;;;;;;;;;;;;;;;22.75;80.67;99190.42;1694315;84;21090;-87
2022/08/17 07:22:55;;;;;;;14.78;8.08;;;;;;;22.85;80.53;99192.70;1688733;84;21642;-89
2022/08/17 07:25:21;;;;;;;12.98;9.40;;;;;;;22.98;79.99;99197.04;1678412;83;20951;-80
2022/08/17 07:27:54;;;;;;;8.08;7.35;;;;;;;23.11;79.19;99197.84;1678403;85;21442;-77
2022/08/17 07:30:27;;;;;;;10.37;8.73;;;;;;;23.21;77.95;99202.87;1689739;84;21010;-83
2022/08/17 07:33:01;;;;;;;8.55;7.75;;;;;;;23.25;76.58;99203.77;1678013;84;21074;-78
2022/08/17 07:35:38;;;;;;;10.93;7.62;;;;;;;23.27;75.74;99202.27;1693273;83;21320;-81
2022/08/17 07:38:15;;;;;;;14.43;8.45;;;;;;;23.28;73.96;99210.73;1635962;86;21068;-81
2022/08/17 07:41:03;;;;;;;11.45;9.18;;;;;;;23.33;74.29;99206.38;1650351;86;21063;-90
2022/08/17 07:43:46;;;;;;;12.05;7.87;;;;;;;23.41;73.63;99205.44;1657121;86;21104;-88
2022/08/17 07:49:45;;;;;;;11.70;7.45;;;;;;;23.59;73.05;99199.72;1668337;86;21510;-84
2022/08/17 07:52:30;;;;;;;11.28;7.80;;;;;;;23.65;71.11;99206.55;1658776;86;20980;-87
2022/08/17 07:57:45;;;;;;;12.80;7.95;;;;;;;23.70;71.63;99207.67;1601429;85;21090;-85
2022/08/17 08:00:22;;;;;;;12.15;7.47;;;;;;;23.76;71.37;99212.58;1567277;89;20928;-85
2022/08/17 08:03:18;;;;;;;11.75;8.23;;;;;;;23.80;71.07;99209.36;1610175;89;21138;-86
2022/08/17 08:05:53;;;;;;;11.05;7.58;;;;;;;23.83;70.56;99211.42;1610050;89;21363;-86
2022/08/17 08:08:38;;;;;;;16.42;8.05;;;;;;;23.87;70.27;99210.95;1624011;87;21044;-82
2022/08/17 08:11:09;;;;;;;19.80;11.22;;;;;;;23.89;69.33;99206.46;1663354;86;20922;-81
2022/08/17 08:13:41;;;;;;;14.55;7.62;;;;;;;23.94;69.10;99210.91;1636116;87;21044;-82
2022/08/17 08:16:27;;;;;;;9.98;7.80;;;;;;;24.00;69.51;99213.06;1663261;86;22738;-86
2022/08/17 08:19:00;;;;;;;7.95;7.15;;;;;;;24.09;69.77;99207.41;1666068;86;20937;-80
2022/08/17 08:21:46;;;;;;;14.60;8.10;;;;;;;24.22;70.09;99208.99;1664446;86;21043;-83
2022/08/17 08:25:06;;;;;;;15.93;8.08;;;;;;;24.29;69.87;99209.16;1665370;86;21011;-81
2022/08/17 08:28:03;;;;;;;11.68;9.30;;;;;;;24.36;69.49;99207.19;1666232;86;20976;-94
2022/08/17 08:30:33;;;;;;;23.52;8.83;;;;;;;24.41;69.34;99208.30;1669006;86;21086;-91
2022/08/17 08:40:57;;;;;;;13.30;9.45;;;;;;;24.67;68.70;99206.63;1667499;86;20952;-86
2022/08/17 08:44:04;;;;;;;17.48;8.23;;;;;;;24.76;68.25;99199.56;1663453;85;21083;-87
2022/08/17 08:47:04;;;;;;;15.43;9.00;;;;;;;24.88;68.58;99199.50;1665003;86;21245;-87
2022/08/17 08:49:57;;;;;;;13.40;8.98;;;;;;;25.03;67.45;99207.52;1668978;86;20935;-87
2022/08/17 08:52:41;;;;;;;10.72;8.70;;;;;;;25.11;66.64;99205.14;1626809;86;21853;-85
2022/08/17 08:55:19;;;;;;;13.08;8.10;;;;;;;25.22;66.51;99202.07;1658796;85;20908;-85
2022/08/17 08:57:56;;;;;;;20.10;8.50;;;;;;;25.35;65.59;99199.98;1663598;86;21046;-81
2022/08/17 09:00:25;;;;;;;12.70;8.83;;;;;;;25.42;65.60;99202.30;1659318;85;20960;-88
2022/08/17 09:03:09;;;;;;;8.23;7.40;;;;;;;25.53;65.09;99201.16;1664129;86;21548;-85
2022/08/17 09:06:23;;;;;;;10.63;7.37;;;;;;;25.61;65.39;99198.83;1661803;86;21604;-87
2022/08/17 09:09:17;;;;;;;14.98;7.40;;;;;;;25.69;64.34;99195.63;1633051;86;21339;-84
2022/08/17 09:12:12;;;;;;;15.60;9.40;;;;;;;25.76;63.61;99193.80;1661944;86;21781;-86
2022/08/17 09:15:07;;;;;;;12.03;8.53;;;;;;;25.80;63.48;99193.31;1664065;86;21351;-91
2022/08/17 09:17:48;;;;;;;11.03;7.85;;;;;;;25.87;64.16;99196.78;1663130;86;21058;-95
2022/08/17 09:20:23;;;;;;;11.08;7.45;;;;;;;25.87;62.75;99204.47;1630127;86;21069;-91
2022/08/17 09:23:07;;;;;;;10.30;7.40;;;;;;;25.92;62.95;99199.24;1666939;86;20977;-89
2022/08/17 09:25:49;;;;;;;15.72;7.78;;;;;;;26.02;62.64;99201.41;1663965;86;21140;-87
2022/08/17 09:28:22;;;;;;;8.18;7.35;;;;;;;26.14;62.36;99198.48;1663846;86;21089;-80
2022/08/17 09:30:51;;;;;;;11.78;8.05;;;;;;;26.31;62.09;99201.39;1663251;86;20991;-81
2022/08/17 09:33:24;;;;;;;13.15;8.55;;;;;;;26.37;61.45;99199.36;1661397;86;21016;-82
2022/08/17 09:35:56;;;;;;;19.23;7.80;;;;;;;26.39;61.41;99194.83;1663607;86;21115;-87
2022/08/17 09:39:01;;;;;;;9.65;8.20;;;;;;;26.44;61.33;99202.81;1663487;86;21297;-85
2022/08/17 09:41:47;;;;;;;9.08;7.80;;;;;;;26.45;61.18;99199.69;1584324;90;21655;-88
2022/08/17 09:44:29;;;;;;;14.07;7.65;;;;;;;26.52;61.38;99200.98;1608906;87;20989;-82
2022/08/17 09:47:13;;;;;;;12.25;8.20;;;;;;;26.57;61.82;99195.16;1663201;86;21049;-78
2022/08/17 09:49:46;;;;;;;14.23;7.87;;;;;;;26.64;60.54;99195.27;1661050;86;20961;-77
2022/08/17 09:52:26;;;;;;;16.02;7.45;;;;;;;26.70;59.88;99196.56;1663330;86;21056;-76
2022/08/17 09:54:54;;;;;;;15.15;7.87;;;;;;;26.75;60.32;99201.19;1663284;86;21307;-82
2022/08/17 09:57:41;;;;;;;11.68;7.30;;;;;;;26.87;60.19;99201.59;1662965;85;21032;-84
2022/08/17 10:00:20;;;;;;;14.30;7.20;;;;;;;26.97;59.45;99195.44;1663280;86;21092;-84
2022/08/17 10:03:16;;;;;;;8.93;7.05;;;;;;;27.10;59.16;99189.15;1663140;86;20965;-84
2022/08/17 10:06:12;;;;;;;18.82;7.60;;;;;;;27.15;58.04;99193.73;1662562;86;21112;-83
2022/08/17 10:09:07;;;;;;;9.53;7.42;;;;;;;27.19;58.72;99186.91;1606564;87;21340;-79
2022/08/17 10:12:15;;;;;;;13.32;7.08;;;;;;;27.23;58.38;99185.79;1634686;87;21044;-80
2022/08/17 10:15:10;;;;;;;21.68;14.28;;;;;;;27.27;58.33;99189.98;1633148;87;21092;-84
2022/08/17 10:17:43;;;;;;;16.85;7.65;;;;;;;27.29;57.57;99184.86;1636196;87;21034;-87
2022/08/17 10:20:18;;;;;;;9.30;8.23;;;;;;;27.32;57.22;99184.92;1663232;86;21046;-78
2022/08/17 10:26:13;;;;;;;8.50;7.00;;;;;;;27.28;55.37;99185.47;1633936;86;21046;-78
2022/08/17 10:28:54;;;;;;;14.95;9.68;;;;;;;27.10;55.81;99182.25;1663221;86;21127;-80
2022/08/17 10:31:40;;;;;;;10.43;7.70;;;;;;;27.04;56.94;99177.63;1663134;86;21110;-80
2022/08/17 10:34:40;;;;;;;11.68;7.45;;;;;;;27.07;57.23;99174.11;1662352;85;21079;-83
2022/08/17 10:45:56;;;;;;;12.88;7.12;;;;;;;27.74;56.57;99184.70;1661734;86;20877;-81
2022/08/17 16:55:02;;;;;;;9.05;5.78;;;;;;;28.16;54.35;99170.59;1628024;88;20988;-76
2022/08/17 16:57:29;;;;;;;9.15;6.33;;;;;;;27.98;54.86;99170.96;1605369;88;21136;-78
2022/08/17 16:59:59;;;;;;;9.78;7.12;;;;;;;27.89;55.22;99164.14;1605597;88;21265;-76
2022/08/17 17:02:32;;;;;;;8.60;7.05;;;;;;;27.87;55.37;99167.27;1628032;87;21173;-77
2022/08/17 17:05:26;;;;;;;16.95;6.33;;;;;;;27.82;55.56;99170.37;1627697;88;21093;-76
2022/08/17 17:08:16;;;;;;;8.55;6.62;;;;;;;27.72;55.95;99169.08;1627238;88;21625;-77
2022/08/17 17:15:52;;;;;;;11.90;6.55;;;;;;;27.39;57.65;99165.45;1628272;88;20929;-76
2022/08/17 17:18:26;;;;;;;15.13;6.92;;;;;;;27.29;58.18;99161.38;1627202;88;21829;-77
2022/08/17 17:20:55;;;;;;;26.07;8.53;;;;;;;27.20;58.67;99165.80;1601558;89;21093;-75
2022/08/17 17:23:58;;;;;;;14.45;8.53;;;;;;;27.11;59.15;99163.91;1602464;88;21189;-76
2022/08/17 17:26:47;;;;;;;11.77;7.23;;;;;;;27.04;59.49;99161.06;1602693;89;21008;-76
2022/08/17 17:29:25;;;;;;;12.20;7.60;;;;;;;27.01;59.93;99165.13;1608163;88;22220;-76
2022/08/17 17:32:06;;;;;;;15.32;8.28;;;;;;;26.94;60.44;99167.22;1633077;87;21052;-76
2022/08/17 17:34:34;;;;;;;17.40;11.45;;;;;;;26.86;60.89;99169.05;1638034;87;21012;-76
2022/08/17 17:37:08;;;;;;;17.60;10.50;;;;;;;26.85;61.15;99168.03;1638090;87;21644;-77
2022/08/17 17:39:49;;;;;;;13.95;9.55;;;;;;;26.84;61.54;99176.09;1634023;87;21103;-76
2022/08/17 17:42:23;;;;;;;16.87;7.78;;;;;;;26.81;61.98;99172.70;1627679;88;21088;-77
2022/08/17 17:45:23;;;;;;;11.55;8.30;;;;;;;26.71;62.52;99174.12;1627615;88;21052;-76
2022/08/17 17:47:51;;;;;;;20.37;13.15;;;;;;;26.60;63.01;99175.11;1627831;88;21054;-80
2022/08/17 17:50:20;;;;;;;16.07;9.35;;;;;;;26.34;64.39;99175.83;1631817;87;20974;-82
2022/08/17 17:53:03;;;;;;;11.18;8.40;;;;;;;26.19;65.23;99179.46;1630323;88;21024;-82
2022/08/17 17:55:59;;;;;;;12.53;8.18;;;;;;;26.05;65.90;99171.16;1618074;86;22217;-86
2022/08/17 17:58:34;;;;;;;14.98;9.38;;;;;;;25.93;66.55;99175.46;1578585;87;21849;-85
2022/08/17 18:01:40;;;;;;;19.90;9.40;;;;;;;25.82;67.16;99170.31;1630544;88;21060;-86
2022/08/17 18:04:21;;;;;;;14.85;9.10;;;;;;;25.73;67.70;99171.70;1630228;87;21095;-76
2022/08/17 18:07:17;;;;;;;12.37;8.90;;;;;;;25.66;68.10;99175.09;1629777;88;21291;-80
2022/08/17 18:10:01;;;;;;;13.43;9.15;;;;;;;25.60;68.54;99177.94;1630238;87;21731;-77
2022/08/17 18:12:55;;;;;;;15.80;8.68;;;;;;;25.57;68.73;99182.20;1630150;88;21029;-77
2022/08/17 18:15:33;;;;;;;14.30;9.25;;;;;;;25.56;68.91;99179.22;1606685;88;21071;-78
2022/08/17 18:18:16;;;;;;;20.50;12.45;;;;;;;25.52;69.17;99183.03;1630042;88;21054;-78
2022/08/17 18:20:50;;;;;;;17.10;11.00;;;;;;;25.48;69.13;99184.92;1629973;88;21726;-78
2022/08/17 18:23:19;;;;;;;;;;;;;;;25.45;69.41;99182.90;1631998;88;21157;-77
2022/08/17 18:25:51;;;;;;;15.53;11.65;;;;;;;25.34;70.06;99174.41;1603117;88;20100;-77
2022/08/17 18:28:33;;;;;;;17.63;10.33;;;;;;;25.25;70.61;99181.27;1630049;88;21359;-78
2022/08/17 18:31:19;;;;;;;15.83;10.05;;;;;;;25.13;71.13;99178.08;1633439;87;21519;-77
2022/08/17 18:33:49;;;;;;;13.88;10.23;;;;;;;25.08;71.36;99171.47;1629895;88;21290;-75
2022/08/17 18:36:29;;;;;;;12.07;10.82;;;;;;;24.97;71.93;99169.84;1630039;88;21222;-77
2022/08/17 18:39:30;;;;;;;14.00;9.48;;;;;;;24.96;71.83;99169.63;1629311;88;21251;-77
2022/08/17 18:41:59;;;;;;;12.05;8.95;;;;;;;25.00;71.52;99171.88;1585410;88;21024;-81
2022/08/17 18:44:36;;;;;;;18.80;9.90;;;;;;;25.00;71.52;99173.24;1629893;87;21093;-76
2022/08/17 18:47:26;;;;;;;15.68;9.33;;;;;;;25.00;71.67;99171.06;1630030;87;21867;-78
2022/08/17 18:50:19;;;;;;;10.28;8.30;;;;;;;25.01;71.57;99174.05;1611835;87;23185;-77
2022/08/17 18:52:48;;;;;;;;;;;;;;;25.04;71.39;99167.81;1639334;87;21057;-76
2022/08/17 18:55:24;;;;;;;13.58;7.92;;;;;;;25.04;71.13;99169.99;1621557;88;20105;-78
2022/08/17 18:57:56;;;;;;;10.58;9.58;;;;;;;25.06;70.93;99172.40;1644619;87;21059;-76